Time;durP1;ratioP1;P1;durP2;ratioP2;P2;SDS_P1;SDS_P2;PMS_P1;PMS_P2;Temp;Humidity;BMP_temperature;BMP_pressure;BME280_temperature;BME280_humidity;BME280_pressure;Samples;Min_cycle;Max_cycle;Signal;HPM_P1;HPM_P2
2023/02/03 00:01:21;;;;;;;18.43;15.73;;;8.30;99.90;;;;;;5117587;28;20467;-73
2023/02/03 00:03:49;;;;;;;16.83;14.63;;;8.30;99.90;;;;;;5117566;28;20462;-73
2023/02/03 00:06:19;;;;;;;16.70;14.87;;;8.30;99.90;;;;;;5098960;28;20825;-72
2023/02/03 00:08:48;;;;;;;18.50;15.30;;;8.40;99.90;;;;;;5121447;27;21010;-72
2023/02/03 00:11:16;;;;;;;18.70;14.90;;;8.30;99.90;;;;;;5114630;27;20442;-73
2023/02/03 00:13:44;;;;;;;17.93;15.20;;;8.40;99.90;;;;;;5137877;27;20440;-72
2023/02/03 00:16:12;;;;;;;19.03;13.77;;;8.40;99.90;;;;;;5135057;27;20448;-72
2023/02/03 00:18:40;;;;;;;21.00;13.90;;;8.40;99.90;;;;;;5137578;27;20973;-72
2023/02/03 00:21:08;;;;;;;17.20;12.97;;;8.40;99.90;;;;;;5137438;27;20465;-72
2023/02/03 00:23:37;;;;;;;14.70;12.77;;;8.40;99.90;;;;;;5119882;27;20784;-72
2023/02/03 00:26:09;;;;;;;14.20;12.70;;;8.40;99.90;;;;;;5137393;27;20930;-73
2023/02/03 00:28:38;;;;;;;15.20;11.27;;;8.40;99.90;;;;;;5137863;27;20965;-73
2023/02/03 00:31:14;;;;;;;15.33;11.63;;;8.40;99.90;;;;;;5118853;27;20450;-73
2023/02/03 00:33:42;;;;;;;17.30;12.50;;;8.40;99.90;;;;;;5137601;27;20509;-73
2023/02/03 00:36:11;;;;;;;14.37;11.93;;;8.40;99.90;;;;;;5118841;27;20453;-73
2023/02/03 00:38:41;;;;;;;16.60;12.40;;;8.40;99.90;;;;;;5137719;27;20454;-73
2023/02/03 00:41:09;;;;;;;11.83;10.40;;;8.40;99.90;;;;;;5118668;27;20489;-72
2023/02/03 00:43:38;;;;;;;14.63;11.37;;;8.40;99.90;;;;;;5118625;27;20440;-73
2023/02/03 00:46:06;;;;;;;12.30;11.00;;;8.40;99.90;;;;;;5118644;27;20451;-72
2023/02/03 00:48:35;;;;;;;11.83;10.67;;;8.40;99.90;;;;;;5118495;27;20469;-72
2023/02/03 00:51:03;;;;;;;14.40;10.00;;;8.40;99.90;;;;;;5136916;27;20928;-73
2023/02/03 00:53:32;;;;;;;11.77;9.10;;;8.50;99.90;;;;;;5137226;27;20440;-72
2023/02/03 00:56:02;;;;;;;10.80;8.20;;;8.50;99.90;;;;;;5137209;27;20439;-72
2023/02/03 00:58:30;;;;;;;11.10;9.00;;;8.50;99.90;;;;;;5118451;27;20504;-73
2023/02/03 01:00:58;;;;;;;12.80;8.87;;;8.50;99.90;;;;;;5136979;27;20466;-72
2023/02/03 01:03:26;;;;;;;12.90;8.40;;;8.50;99.90;;;;;;5118371;27;20449;-73
2023/02/03 01:05:54;;;;;;;12.17;8.70;;;8.50;99.90;;;;;;5136703;27;20430;-72
2023/02/03 01:08:23;;;;;;;10.80;8.50;;;8.50;99.90;;;;;;5118128;27;20515;-73
2023/02/03 01:10:51;;;;;;;10.03;7.30;;;8.50;99.90;;;;;;5118199;27;20474;-73
2023/02/03 01:13:20;;;;;;;10.10;7.33;;;8.50;99.90;;;;;;5136477;27;20959;-72
2023/02/03 01:15:48;;;;;;;12.20;7.37;;;8.50;99.90;;;;;;5136760;27;20445;-73
2023/02/03 01:18:16;;;;;;;11.20;7.03;;;8.50;99.90;;;;;;5115215;27;20485;-72
2023/02/03 01:20:44;;;;;;;11.73;6.90;;;8.50;99.90;;;;;;5110796;28;20478;-72
2023/02/03 01:23:12;;;;;;;12.80;7.83;;;8.50;99.90;;;;;;5131118;27;20434;-72
2023/02/03 01:25:40;;;;;;;10.53;6.87;;;8.50;99.90;;;;;;5098547;28;20446;-73
2023/02/03 01:28:09;;;;;;;8.97;6.40;;;8.50;99.90;;;;;;5115800;28;20459;-73
2023/02/03 01:30:38;;;;;;;10.30;6.03;;;8.50;99.90;;;;;;5115630;28;20501;-72
2023/02/03 01:33:06;;;;;;;11.10;6.43;;;8.50;99.90;;;;;;5115626;28;20458;-72
2023/02/03 01:35:35;;;;;;;13.40;7.13;;;8.50;99.90;;;;;;5097282;28;20462;-72
2023/02/03 01:38:03;;;;;;;11.73;6.43;;;8.50;99.90;;;;;;5097177;28;20512;-73
2023/02/03 01:40:31;;;;;;;10.60;7.07;;;8.50;99.90;;;;;;5097258;28;20451;-72
2023/02/03 01:43:00;;;;;;;9.20;7.73;;;8.60;99.90;;;;;;5115694;28;20459;-73
2023/02/03 01:45:28;;;;;;;9.50;7.43;;;8.60;99.90;;;;;;5097013;28;20465;-72
2023/02/03 01:47:59;;;;;;;11.00;7.60;;;8.50;99.90;;;;;;5115227;28;20469;-72
2023/02/03 01:50:31;;;;;;;9.00;7.47;;;8.60;99.90;;;;;;5096944;28;20442;-72
2023/02/03 01:53:03;;;;;;;9.27;7.73;;;8.60;99.90;;;;;;5114959;28;20412;-73
2023/02/03 01:55:34;;;;;;;10.17;8.37;;;8.60;99.90;;;;;;5115433;28;20749;-72
2023/02/03 01:58:06;;;;;;;10.30;7.57;;;8.60;99.90;;;;;;5115186;28;20475;-73
2023/02/03 02:00:34;;;;;;;12.97;8.80;;;8.60;99.90;;;;;;5096802;28;20460;-72
2023/02/03 02:03:05;;;;;;;13.90;9.20;;;8.60;99.90;;;;;;5115165;28;20470;-73
2023/02/03 02:05:38;;;;;;;10.50;8.37;;;8.60;99.90;;;;;;5096671;28;20438;-72
2023/02/03 02:08:08;;;;;;;11.07;8.43;;;8.60;99.90;;;;;;5115099;27;20469;-72
2023/02/03 02:10:37;;;;;;;10.70;9.03;;;8.60;99.90;;;;;;5116943;27;20453;-73
2023/02/03 02:13:06;;;;;;;10.70;8.40;;;8.60;99.90;;;;;;5135335;27;20427;-72
2023/02/03 02:15:45;;;;;;;10.10;8.13;;;8.60;99.90;;;;;;5116878;27;20806;-72
2023/02/03 02:18:28;;;;;;;11.73;8.13;;;8.60;99.90;;;;;;5116803;27;20462;-72
2023/02/03 02:21:19;;;;;;;13.77;9.10;;;8.60;99.90;;;;;;5116735;27;20481;-72
2023/02/03 02:24:36;;;;;;;13.67;8.60;;;8.60;99.90;;;;;;5100966;27;20443;-72
2023/02/03 02:27:09;;;;;;;12.23;7.47;;;8.60;99.90;;;;;;4995728;28;20895;-73
2023/02/03 02:30:10;;;;;;;10.70;6.77;;;8.60;99.90;;;;;;5061202;28;20472;-72
2023/02/03 02:32:53;;;;;;;9.67;6.87;;;8.60;99.90;;;;;;5113575;27;20519;-72
2023/02/03 02:35:32;;;;;;;9.03;6.33;;;8.60;99.90;;;;;;5135029;27;20450;-72
2023/02/03 02:38:05;;;;;;;7.77;6.37;;;8.60;99.90;;;;;;5116666;27;20462;-72
2023/02/03 02:40:37;;;;;;;9.50;6.27;;;8.60;99.90;;;;;;5116573;27;20435;-72
2023/02/03 02:43:13;;;;;;;8.00;6.17;;;8.60;99.90;;;;;;5116383;27;20458;-72
2023/02/03 02:45:48;;;;;;;8.47;6.30;;;8.60;99.90;;;;;;5116395;27;20943;-72
2023/02/03 02:48:22;;;;;;;8.10;5.60;;;8.60;99.90;;;;;;5134706;27;20454;-72
2023/02/03 02:50:55;;;;;;;9.33;5.77;;;8.60;99.90;;;;;;5116344;27;20450;-72
2023/02/03 02:53:28;;;;;;;10.90;5.93;;;8.70;99.90;;;;;;5116204;27;20438;-72
2023/02/03 02:55:58;;;;;;;8.90;5.63;;;8.60;99.90;;;;;;5116262;27;20433;-72
2023/02/03 02:58:29;;;;;;;7.40;5.17;;;8.70;99.90;;;;;;5134339;27;20476;-73
2023/02/03 03:00:57;;;;;;;9.60;5.17;;;8.70;99.90;;;;;;5116187;27;20426;-72
2023/02/03 03:03:27;;;;;;;8.07;5.20;;;8.70;99.90;;;;;;5115793;27;20522;-72
2023/02/03 03:05:59;;;;;;;7.57;5.53;;;8.70;99.90;;;;;;5133891;27;20465;-73
2023/02/03 03:08:38;;;;;;;6.67;5.60;;;8.70;99.90;;;;;;5115929;27;20470;-73
2023/02/03 03:11:07;;;;;;;9.60;5.50;;;8.70;99.90;;;;;;5116054;28;20440;-73
2023/02/03 03:13:39;;;;;;;10.30;5.63;;;8.70;99.90;;;;;;5134291;27;20940;-73
2023/02/03 03:16:10;;;;;;;7.90;5.10;;;8.70;99.90;;;;;;5115946;27;20815;-72
2023/02/03 03:18:43;;;;;;;10.67;6.00;;;8.70;99.90;;;;;;5134337;27;20519;-72
2023/02/03 03:21:17;;;;;;;9.70;5.47;;;8.70;99.90;;;;;;5115841;28;20438;-72
2023/02/03 03:23:50;;;;;;;10.03;6.47;;;8.70;99.90;;;;;;5115788;28;20466;-73
2023/02/03 03:26:23;;;;;;;11.47;6.10;;;8.70;99.90;;;;;;5134182;28;20434;-73
2023/02/03 03:28:57;;;;;;;8.77;5.50;;;8.70;99.90;;;;;;5117364;28;20466;-73
2023/02/03 03:31:25;;;;;;;9.80;6.00;;;8.70;99.90;;;;;;5125158;28;20426;-73
2023/02/03 03:33:55;;;;;;;13.30;6.47;;;8.80;99.90;;;;;;5122016;28;20450;-73
2023/02/03 03:36:27;;;;;;;10.27;6.57;;;8.80;99.90;;;;;;5127379;28;20972;-73
2023/02/03 03:39:01;;;;;;;10.33;6.20;;;8.80;99.90;;;;;;5108237;28;20498;-73
2023/02/03 03:41:39;;;;;;;8.80;5.80;;;8.80;99.90;;;;;;5134327;28;20437;-73
2023/02/03 03:44:12;;;;;;;10.00;6.50;;;8.80;99.90;;;;;;5134220;28;20449;-73
2023/02/03 03:46:45;;;;;;;14.50;6.97;;;8.80;99.90;;;;;;5134399;28;20419;-72
2023/02/03 03:49:15;;;;;;;9.37;6.07;;;8.80;99.90;;;;;;5134201;28;20549;-73
2023/02/03 03:51:48;;;;;;;10.10;6.30;;;8.80;99.90;;;;;;5134060;28;20419;-73
2023/02/03 03:54:20;;;;;;;10.60;5.50;;;8.80;99.90;;;;;;5135202;28;20769;-73
2023/02/03 03:56:53;;;;;;;8.50;6.50;;;8.80;99.90;;;;;;5116026;28;20956;-73
2023/02/03 03:59:24;;;;;;;8.83;6.73;;;8.80;99.90;;;;;;5115607;28;20478;-73
2023/02/03 04:01:52;;;;;;;10.50;6.87;;;8.80;99.90;;;;;;5134215;28;20422;-72
2023/02/03 04:04:25;;;;;;;10.93;6.90;;;8.90;99.90;;;;;;5134215;28;20469;-72
2023/02/03 04:06:54;;;;;;;14.03;7.30;;;8.80;99.90;;;;;;5134213;28;20415;-72
2023/02/03 04:09:22;;;;;;;9.10;6.80;;;8.80;99.90;;;;;;5134296;28;20507;-72
2023/02/03 04:12:04;;;;;;;11.60;7.70;;;8.80;99.90;;;;;;5134113;28;20437;-72
2023/02/03 04:14:34;;;;;;;10.57;6.97;;;8.90;99.90;;;;;;5115395;28;20929;-72
2023/02/03 04:17:02;;;;;;;13.33;7.20;;;8.80;99.90;;;;;;5118418;27;20453;-72
2023/02/03 04:19:32;;;;;;;14.27;7.53;;;8.80;99.90;;;;;;5137442;27;20560;-72
2023/02/03 04:22:00;;;;;;;12.67;7.93;;;8.80;99.90;;;;;;5137435;27;20451;-72
2023/02/03 04:24:28;;;;;;;13.83;8.10;;;8.80;99.90;;;;;;5119004;27;20473;-72
2023/02/03 04:26:56;;;;;;;9.40;7.50;;;8.90;99.90;;;;;;5137726;27;20776;-72
2023/02/03 04:29:24;;;;;;;9.20;6.57;;;8.90;99.90;;;;;;5137328;27;20454;-73
2023/02/03 04:31:52;;;;;;;10.27;6.70;;;8.80;99.90;;;;;;5137618;27;20437;-72
2023/02/03 04:34:21;;;;;;;13.47;6.90;;;8.90;99.90;;;;;;5134932;27;20438;-72
2023/02/03 04:36:50;;;;;;;13.63;7.30;;;8.80;99.90;;;;;;5123122;27;20452;-73
2023/02/03 04:39:18;;;;;;;10.80;6.50;;;8.80;99.90;;;;;;5120821;27;20827;-72
2023/02/03 04:41:46;;;;;;;10.30;5.90;;;8.80;99.90;;;;;;5115064;28;20443;-72
2023/02/03 04:44:14;;;;;;;9.37;6.13;;;8.80;99.90;;;;;;5098353;28;20478;-72
2023/02/03 04:46:42;;;;;;;13.67;7.07;;;8.80;99.90;;;;;;5098329;28;21067;-72
2023/02/03 04:49:11;;;;;;;12.17;6.40;;;8.80;99.90;;;;;;5099950;28;20478;-72
2023/02/03 04:51:39;;;;;;;11.57;6.43;;;8.80;99.90;;;;;;5121876;28;20435;-72
2023/02/03 04:54:08;;;;;;;8.90;6.50;;;8.80;99.90;;;;;;5121766;28;20452;-73
2023/02/03 04:56:37;;;;;;;12.40;6.40;;;8.80;99.90;;;;;;5122821;28;20554;-72
2023/02/03 04:59:05;;;;;;;10.33;5.70;;;8.80;99.90;;;;;;5123362;28;20573;-71
2023/02/03 05:01:33;;;;;;;10.17;6.13;;;8.80;99.90;;;;;;5118980;28;21006;-71
2023/02/03 05:04:01;;;;;;;9.50;5.07;;;8.80;99.90;;;;;;5116255;28;20474;-71
2023/02/03 05:06:30;;;;;;;10.77;5.90;;;8.80;99.90;;;;;;5098143;28;20447;-71
2023/02/03 05:08:59;;;;;;;9.63;5.50;;;8.80;99.90;;;;;;5097751;28;20501;-71
2023/02/03 05:11:29;;;;;;;10.87;5.93;;;8.80;99.90;;;;;;5115941;28;20962;-71
2023/02/03 05:13:57;;;;;;;8.30;5.30;;;8.90;99.90;;;;;;5116272;28;20443;-72
2023/02/03 05:16:25;;;;;;;11.03;6.10;;;8.80;99.90;;;;;;5116232;28;20800;-72
2023/02/03 05:18:53;;;;;;;8.80;5.50;;;8.90;99.90;;;;;;5116039;28;20499;-72
2023/02/03 05:21:21;;;;;;;14.20;6.03;;;8.90;99.90;;;;;;5097651;28;20443;-72
2023/02/03 05:23:50;;;;;;;10.40;6.10;;;8.90;99.90;;;;;;5115941;28;20524;-72
2023/02/03 05:26:18;;;;;;;12.20;5.90;;;8.90;99.90;;;;;;5116005;28;20440;-72
2023/02/03 05:28:47;;;;;;;9.90;5.40;;;8.80;99.90;;;;;;5114769;28;20459;-72
2023/02/03 05:31:15;;;;;;;8.33;5.50;;;8.90;99.90;;;;;;5097355;28;20521;-72
2023/02/03 05:33:43;;;;;;;14.60;6.37;;;8.90;99.90;;;;;;5097300;28;20447;-72
2023/02/03 05:36:11;;;;;;;8.13;6.00;;;8.90;99.90;;;;;;5127423;27;20457;-72
2023/02/03 05:38:41;;;;;;;9.07;5.50;;;8.90;99.90;;;;;;5117763;27;20463;-72
2023/02/03 05:43:57;;;;;;;9.37;5.57;;;8.90;99.90;;;;;;5115900;28;20945;-72
2023/02/03 05:46:25;;;;;;;9.37;6.00;;;8.90;99.90;;;;;;5115456;28;20440;-72
2023/02/03 05:48:53;;;;;;;9.40;5.63;;;8.90;99.90;;;;;;5115201;28;20554;-72
2023/02/03 05:51:21;;;;;;;8.20;5.30;;;8.90;99.90;;;;;;5097225;28;20797;-72
2023/02/03 05:53:49;;;;;;;15.37;5.40;;;8.90;99.90;;;;;;5115474;28;20446;-72
2023/02/03 05:56:17;;;;;;;10.20;5.43;;;8.90;99.90;;;;;;5115113;28;20427;-72
2023/02/03 05:58:45;;;;;;;10.83;5.43;;;8.90;99.90;;;;;;5114956;28;20985;-72
2023/02/03 06:01:15;;;;;;;10.53;5.60;;;8.90;99.90;;;;;;5115261;28;20446;-72
2023/02/03 06:03:43;;;;;;;12.17;6.17;;;8.90;99.90;;;;;;5115157;28;20463;-72
2023/02/03 06:06:13;;;;;;;7.73;5.20;;;8.90;99.90;;;;;;5115226;28;20431;-72
2023/02/03 06:08:41;;;;;;;11.17;5.90;;;8.90;99.90;;;;;;5096544;28;20839;-72
2023/02/03 06:11:10;;;;;;;13.60;6.60;;;8.80;99.90;;;;;;5115113;28;20952;-72
2023/02/03 06:13:38;;;;;;;8.57;6.13;;;8.80;99.90;;;;;;5114850;28;20446;-72
2023/02/03 06:16:07;;;;;;;9.20;6.40;;;8.80;99.90;;;;;;5096649;28;20542;-72
2023/02/03 06:18:36;;;;;;;13.70;6.73;;;8.80;99.90;;;;;;5114899;28;20467;-72
2023/02/03 06:21:04;;;;;;;12.30;6.20;;;8.70;99.90;;;;;;5096565;28;20514;-72
2023/02/03 06:23:33;;;;;;;13.30;7.30;;;8.70;99.90;;;;;;5114550;28;20443;-73
2023/02/03 06:26:01;;;;;;;13.20;6.30;;;8.70;99.90;;;;;;5114627;28;20484;-72
2023/02/03 06:28:29;;;;;;;9.83;7.23;;;8.70;99.90;;;;;;5096567;28;20490;-72
2023/02/03 06:30:57;;;;;;;11.50;7.77;;;8.70;99.90;;;;;;5096234;28;20447;-73
2023/02/03 06:33:25;;;;;;;10.90;6.83;;;8.60;99.90;;;;;;5114467;28;20934;-71
2023/02/03 06:35:55;;;;;;;11.52;7.20;;;8.60;99.90;;;;;;5114198;28;20446;-72
2023/02/03 06:38:23;;;;;;;10.40;6.37;;;8.60;99.90;;;;;;5114441;28;20205;-73
2023/02/03 06:40:51;;;;;;;10.60;6.27;;;8.70;99.90;;;;;;5114327;28;20435;-72
2023/02/03 06:43:19;;;;;;;11.17;6.50;;;8.70;99.90;;;;;;5114517;28;20435;-72
2023/02/03 06:45:48;;;;;;;13.13;6.73;;;8.70;99.90;;;;;;5114134;28;20916;-73
2023/02/03 06:48:16;;;;;;;11.10;6.53;;;8.70;99.90;;;;;;5114115;28;20459;-73
2023/02/03 06:50:45;;;;;;;11.97;6.50;;;8.70;99.90;;;;;;5114227;28;20438;-73
2023/02/03 06:53:17;;;;;;;9.40;5.23;;;8.70;99.90;;;;;;5095908;28;20529;-72
2023/02/03 06:55:46;;;;;;;10.17;5.00;;;8.70;99.90;;;;;;5114336;28;20434;-71
2023/02/03 06:58:15;;;;;;;10.33;5.70;;;8.80;99.90;;;;;;5113990;28;20523;-72
2023/02/03 07:00:43;;;;;;;11.37;6.03;;;8.80;99.90;;;;;;5114026;28;20926;-71
2023/02/03 07:03:11;;;;;;;10.10;5.47;;;8.80;99.90;;;;;;5114216;28;20447;-72
2023/02/03 07:05:39;;;;;;;10.70;5.43;;;8.80;99.90;;;;;;5114043;28;20471;-73
2023/02/03 07:08:07;;;;;;;8.30;5.20;;;8.90;99.90;;;;;;5114125;28;20953;-73
2023/02/03 07:10:37;;;;;;;9.07;5.60;;;8.90;99.90;;;;;;5113924;28;20995;-72
2023/02/03 07:13:06;;;;;;;10.77;4.93;;;8.90;99.90;;;;;;5095748;28;20451;-72
2023/02/03 07:15:34;;;;;;;12.33;5.70;;;9.00;99.90;;;;;;5114482;28;20952;-73
2023/02/03 07:18:02;;;;;;;12.27;5.20;;;9.00;99.90;;;;;;5113915;28;20463;-73
2023/02/03 07:20:33;;;;;;;8.47;4.93;;;9.00;99.90;;;;;;5113836;28;20431;-73
2023/02/03 07:23:01;;;;;;;12.00;5.53;;;9.00;99.90;;;;;;5113753;28;20431;-72
2023/02/03 07:25:31;;;;;;;12.13;5.33;;;9.10;99.90;;;;;;5095319;28;20467;-72
2023/02/03 07:28:00;;;;;;;8.63;4.40;;;9.10;99.90;;;;;;5113823;28;20480;-73
2023/02/03 07:30:28;;;;;;;8.73;4.70;;;9.10;99.90;;;;;;5114403;28;20818;-72
2023/02/03 07:32:57;;;;;;;11.17;5.03;;;9.10;99.90;;;;;;5113817;28;20802;-72
2023/02/03 07:35:26;;;;;;;13.00;5.70;;;9.20;99.90;;;;;;5095605;28;20452;-72
2023/02/03 07:37:54;;;;;;;10.40;4.83;;;9.20;99.90;;;;;;5113570;28;20523;-72
2023/02/03 07:40:22;;;;;;;8.40;4.67;;;9.20;99.90;;;;;;5113656;28;20464;-72
2023/02/03 07:42:50;;;;;;;9.37;5.13;;;9.20;99.90;;;;;;5113628;28;20484;-73
2023/02/03 07:45:21;;;;;;;9.13;4.90;;;9.20;99.90;;;;;;5113707;28;20471;-72
2023/02/03 07:47:49;;;;;;;10.00;4.67;;;9.30;99.90;;;;;;5113716;28;20466;-72
2023/02/03 07:50:17;;;;;;;11.97;4.70;;;9.30;99.90;;;;;;5113814;28;20450;-72
2023/02/03 07:52:45;;;;;;;13.50;4.83;;;9.30;99.90;;;;;;5117627;28;20995;-72
2023/02/03 07:55:13;;;;;;;10.03;4.33;;;9.30;99.90;;;;;;5117773;28;20427;-72
2023/02/03 07:57:42;;;;;;;10.20;4.73;;;9.30;99.90;;;;;;5099022;28;20504;-72
2023/02/03 08:00:13;;;;;;;12.90;4.83;;;9.40;99.90;;;;;;5117275;28;20581;-72
2023/02/03 08:02:43;;;;;;;9.37;4.57;;;9.40;99.90;;;;;;5099153;28;20443;-72
2023/02/03 08:05:12;;;;;;;9.00;4.87;;;9.40;99.90;;;;;;5117579;28;20565;-72
2023/02/03 08:07:41;;;;;;;12.17;5.00;;;9.40;99.90;;;;;;5098997;28;20443;-72
2023/02/03 08:10:10;;;;;;;11.80;5.13;;;9.50;99.90;;;;;;5098907;28;20540;-72
2023/02/03 08:12:38;;;;;;;12.60;5.13;;;9.50;99.90;;;;;;5117277;28;20480;-72
2023/02/03 08:15:07;;;;;;;10.87;4.90;;;9.50;99.90;;;;;;5117225;28;20435;-72
2023/02/03 08:17:35;;;;;;;16.67;5.17;;;9.50;99.90;;;;;;5098811;28;20435;-72
2023/02/03 08:20:06;;;;;;;11.00;4.50;;;9.50;99.90;;;;;;5099085;28;20856;-73
2023/02/03 08:22:34;;;;;;;10.47;4.80;;;9.60;99.90;;;;;;5117338;28;20431;-73
2023/02/03 08:25:02;;;;;;;13.20;4.67;;;9.60;99.90;;;;;;5116878;28;20470;-72
2023/02/03 08:27:32;;;;;;;9.73;5.00;;;9.60;99.90;;;;;;5117235;28;20956;-72
2023/02/03 08:30:00;;;;;;;10.73;5.33;;;9.60;99.90;;;;;;5117506;28;20505;-72
2023/02/03 08:32:28;;;;;;;12.30;5.40;;;9.60;99.90;;;;;;5117444;28;20900;-72
2023/02/03 08:34:56;;;;;;;12.03;4.47;;;9.60;99.90;;;;;;5116824;28;20441;-73
2023/02/03 08:37:27;;;;;;;9.67;4.03;;;9.60;99.90;;;;;;5116709;28;20435;-72
2023/02/03 08:39:55;;;;;;;10.80;4.13;;;9.70;99.90;;;;;;5116631;28;20416;-73
2023/02/03 08:42:23;;;;;;;10.87;3.90;;;9.70;99.90;;;;;;5117298;28;20427;-72
2023/02/03 08:44:51;;;;;;;14.73;4.80;;;9.70;99.90;;;;;;5098300;28;20794;-72
2023/02/03 08:47:19;;;;;;;13.67;4.93;;;9.70;99.90;;;;;;5116580;28;20442;-73
2023/02/03 08:49:47;;;;;;;13.80;4.87;;;9.70;99.90;;;;;;5098186;28;20478;-72
2023/02/03 08:52:16;;;;;;;10.90;5.00;;;9.80;99.90;;;;;;5116442;28;20431;-72
2023/02/03 08:54:47;;;;;;;16.27;6.20;;;9.80;99.90;;;;;;5116769;28;20422;-72
2023/02/03 08:57:16;;;;;;;16.53;4.77;;;9.80;99.90;;;;;;5116562;28;20439;-73
2023/02/03 08:59:44;;;;;;;16.17;5.23;;;9.80;99.90;;;;;;5098047;28;20463;-72
2023/02/03 09:02:16;;;;;;;19.20;6.70;;;9.80;99.90;;;;;;5114906;28;20431;-72
2023/02/03 09:04:46;;;;;;;15.27;5.90;;;9.80;99.90;;;;;;5116977;28;20823;-72
2023/02/03 09:07:15;;;;;;;16.90;5.87;;;9.90;99.90;;;;;;5116160;28;20433;-72
2023/02/03 09:09:43;;;;;;;16.17;5.90;;;9.90;99.90;;;;;;5097742;28;20495;-73
2023/02/03 09:12:13;;;;;;;18.63;6.00;;;9.90;99.90;;;;;;5116100;28;20469;-73
2023/02/03 09:14:41;;;;;;;15.13;4.50;;;9.80;99.90;;;;;;5116054;28;20530;-74
2023/02/03 09:17:11;;;;;;;12.63;4.30;;;9.70;99.90;;;;;;5116488;28;20484;-73
2023/02/03 09:19:39;;;;;;;13.50;3.70;;;9.60;99.90;;;;;;5116173;28;20461;-74
2023/02/03 09:22:07;;;;;;;16.10;4.73;;;9.30;99.90;;;;;;5115869;28;20435;-73
2023/02/03 09:24:36;;;;;;;15.03;4.00;;;9.10;99.90;;;;;;5097476;28;20798;-73
2023/02/03 09:27:04;;;;;;;11.80;4.33;;;9.00;99.90;;;;;;5097523;28;20512;-73
2023/02/03 09:29:34;;;;;;;10.50;4.20;;;8.90;99.90;;;;;;5115506;28;20449;-73
2023/02/03 09:32:06;;;;;;;9.57;3.97;;;8.90;99.90;;;;;;5115698;28;20538;-73
2023/02/03 09:34:34;;;;;;;14.80;4.37;;;8.80;99.90;;;;;;5115860;28;20435;-73
2023/02/03 09:37:03;;;;;;;15.60;3.87;;;8.80;99.90;;;;;;5097736;28;20450;-73
2023/02/03 09:39:31;;;;;;;13.53;4.27;;;8.80;99.90;;;;;;5097199;28;20483;-73
2023/02/03 09:42:35;;;;;;;14.10;4.67;;;8.80;99.90;;;;;;5115760;28;20447;-73
2023/02/03 09:45:17;;;;;;;18.57;4.80;;;8.80;99.90;;;;;;5095120;28;20937;-73
2023/02/03 09:47:52;;;;;;;17.33;5.17;;;8.90;99.90;;;;;;5115627;28;20449;-73
2023/02/03 09:50:23;;;;;;;17.87;6.40;;;8.90;99.90;;;;;;5097044;28;20441;-73
2023/02/03 09:52:53;;;;;;;17.97;5.23;;;8.90;99.90;;;;;;5097085;28;20431;-73
2023/02/03 09:55:27;;;;;;;18.90;5.30;;;9.00;99.90;;;;;;5115237;28;20435;-73
2023/02/03 09:58:03;;;;;;;16.80;5.40;;;9.00;99.90;;;;;;5115216;28;20472;-73
2023/02/03 10:00:36;;;;;;;16.07;5.87;;;9.10;99.90;;;;;;5115497;28;20477;-72
2023/02/03 10:03:09;;;;;;;19.30;5.80;;;9.10;99.90;;;;;;5115495;28;20450;-73
2023/02/03 10:05:53;;;;;;;24.63;6.90;;;9.20;99.90;;;;;;5115099;28;20420;-73
2023/02/03 10:08:31;;;;;;;20.07;5.40;;;9.20;99.90;;;;;;5115388;28;20455;-73
2023/02/03 10:11:09;;;;;;;13.80;5.40;;;9.20;99.90;;;;;;5115020;28;20419;-72
2023/02/03 10:13:52;;;;;;;19.13;6.83;;;9.30;99.90;;;;;;5114499;28;20437;-72
2023/02/03 10:16:52;;;;;;;22.00;6.90;;;9.30;99.90;;;;;;5096581;28;20442;-73
2023/02/03 10:19:25;;;;;;;20.37;6.90;;;9.40;99.90;;;;;;5115539;28;20863;-73
2023/02/03 10:21:58;;;;;;;19.87;6.60;;;9.40;99.90;;;;;;5115335;28;20514;-73
2023/02/03 10:24:39;;;;;;;21.77;6.47;;;9.50;99.90;;;;;;5115027;28;20403;-73
2023/02/03 10:27:16;;;;;;;21.60;6.87;;;9.50;99.90;;;;;;5114898;28;20455;-73
2023/02/03 10:29:49;;;;;;;20.57;6.23;;;9.60;99.90;;;;;;5114692;28;20565;-73
2023/02/03 10:32:18;;;;;;;23.93;6.90;;;9.60;99.90;;;;;;5114771;28;20424;-73
2023/02/03 10:34:48;;;;;;;23.00;6.83;;;9.60;99.90;;;;;;5114673;28;20442;-73
2023/02/03 10:37:26;;;;;;;21.40;7.03;;;9.70;99.90;;;;;;5096133;28;21052;-73
2023/02/03 10:39:58;;;;;;;18.43;7.20;;;9.80;99.90;;;;;;5096085;28;20466;-73
2023/02/03 10:43:46;;;;;;;25.00;7.30;;;9.80;99.90;;;;;;5114407;28;20457;-72
2023/02/03 10:45:16;;;;;;;28.43;8.00;;;9.90;99.90;;;;;;5114236;28;20440;-73
2023/02/03 10:47:50;;;;;;;19.10;5.70;;;9.90;99.90;;;;;;5114077;28;20485;-73
2023/02/03 10:50:20;;;;;;;20.90;6.53;;;9.90;99.90;;;;;;5114260;28;20411;-73
2023/02/03 10:52:49;;;;;;;23.73;6.73;;;10.00;99.90;;;;;;5114807;28;20420;-73
2023/02/03 10:55:31;;;;;;;28.23;7.50;;;10.00;99.90;;;;;;5095837;28;20516;-72
2023/02/03 10:58:11;;;;;;;23.20;6.10;;;10.10;99.90;;;;;;5114167;28;20474;-73
2023/02/03 11:00:39;;;;;;;24.60;7.13;;;10.10;99.90;;;;;;5114328;28;20916;-73
2023/02/03 11:03:22;;;;;;;20.80;6.30;;;10.10;99.90;;;;;;5113995;28;21010;-73
2023/02/03 11:06:05;;;;;;;14.73;5.30;;;10.20;99.90;;;;;;5095765;28;20849;-73
2023/02/03 11:08:34;;;;;;;24.40;6.30;;;10.20;99.90;;;;;;5113759;28;20554;-72
2023/02/03 11:11:04;;;;;;;22.90;7.07;;;10.20;99.90;;;;;;5095697;28;20537;-73
2023/02/03 11:13:33;;;;;;;19.87;7.03;;;10.20;99.90;;;;;;5095569;28;20454;-73
2023/02/03 11:16:03;;;;;;;15.67;5.27;;;10.30;99.90;;;;;;5113735;28;20454;-73
2023/02/03 11:18:55;;;;;;;22.03;6.20;;;10.20;99.90;;;;;;5114094;28;20451;-73
2023/02/03 11:21:26;;;;;;;20.50;6.93;;;10.20;99.90;;;;;;5109830;28;20470;-73
2023/02/03 11:24:00;;;;;;;22.07;7.07;;;10.30;99.90;;;;;;5095739;28;20439;-73
2023/02/03 11:26:32;;;;;;;21.93;6.30;;;10.30;99.90;;;;;;5094951;28;20550;-72
2023/02/03 11:29:02;;;;;;;21.90;7.30;;;10.30;99.90;;;;;;5113707;28;20459;-73
2023/02/03 11:31:33;;;;;;;17.53;5.90;;;10.30;99.90;;;;;;5114382;28;20430;-73
2023/02/03 11:34:06;;;;;;;19.43;5.80;;;10.30;99.90;;;;;;5114365;28;20969;-72
2023/02/03 11:36:35;;;;;;;20.10;6.93;;;10.30;99.90;;;;;;5114063;28;20432;-73
2023/02/03 11:39:11;;;;;;;17.80;6.20;;;10.30;99.90;;;;;;5113529;28;21008;-73
2023/02/03 11:41:40;;;;;;;20.87;6.37;;;10.30;99.90;;;;;;5095550;28;20475;-72
2023/02/03 11:44:13;;;;;;;20.00;6.70;;;10.30;99.90;;;;;;5113504;28;20427;-72
2023/02/03 11:46:42;;;;;;;17.20;5.77;;;10.20;99.90;;;;;;5114121;28;20455;-73
2023/02/03 11:49:29;;;;;;;21.93;7.27;;;10.30;99.90;;;;;;5113525;28;20538;-72
2023/02/03 11:52:04;;;;;;;20.23;6.43;;;10.20;99.90;;;;;;5113687;28;20434;-73
2023/02/03 11:54:43;;;;;;;20.03;6.67;;;10.30;99.90;;;;;;5113781;28;20415;-73
2023/02/03 11:57:29;;;;;;;20.17;6.40;;;10.30;99.90;;;;;;5095133;28;20431;-73
2023/02/03 12:00:12;;;;;;;21.20;6.43;;;10.30;99.90;;;;;;5113699;28;20906;-73
2023/02/03 12:03:20;;;;;;;16.03;6.17;;;10.30;99.90;;;;;;5113823;28;20466;-72
2023/02/03 12:06:17;;;;;;;22.03;6.63;;;10.30;99.90;;;;;;5113626;28;20426;-72
2023/02/03 12:09:08;;;;;;;29.23;7.60;;;10.20;99.90;;;;;;5094945;28;20479;-73
2023/02/03 12:12:00;;;;;;;20.47;6.67;;;10.30;99.90;;;;;;5095104;28;20435;-72
2023/02/03 12:14:43;;;;;;;23.00;5.93;;;10.30;99.90;;;;;;5094927;28;20443;-73
2023/02/03 12:17:39;;;;;;;18.80;5.53;;;10.30;99.90;;;;;;5113226;28;20905;-73
2023/02/03 12:20:23;;;;;;;20.40;5.30;;;10.30;99.90;;;;;;5095024;28;20856;-72
2023/02/03 12:22:59;;;;;;;19.33;6.37;;;10.20;99.90;;;;;;5095141;28;20450;-72
2023/02/03 12:25:37;;;;;;;17.83;5.00;;;10.20;99.90;;;;;;5095018;28;20876;-71
2023/02/03 12:28:17;;;;;;;14.70;5.37;;;10.20;99.90;;;;;;5094720;28;20844;-73
2023/02/03 12:31:07;;;;;;;26.87;6.10;;;10.20;99.90;;;;;;5094914;28;20541;-73
2023/02/03 12:33:43;;;;;;;19.37;6.17;;;10.20;99.90;;;;;;5113063;28;20446;-73
2023/02/03 12:36:16;;;;;;;16.10;5.80;;;10.20;99.90;;;;;;5113454;28;20451;-72
2023/02/03 12:38:53;;;;;;;16.43;6.80;;;10.20;99.90;;;;;;5117249;28;20470;-73
2023/02/03 12:41:26;;;;;;;17.90;6.50;;;10.20;99.90;;;;;;5098365;28;20937;-72
2023/02/03 12:43:59;;;;;;;15.33;5.10;;;10.20;99.90;;;;;;5098429;28;20447;-71
2023/02/03 12:46:31;;;;;;;24.60;6.87;;;10.20;99.90;;;;;;5098380;28;20436;-73
2023/02/03 12:49:05;;;;;;;20.90;6.20;;;10.20;99.90;;;;;;5098154;28;20475;-73
2023/02/03 12:51:39;;;;;;;15.33;5.40;;;10.20;99.90;;;;;;5098297;28;20428;-72
2023/02/03 12:54:25;;;;;;;15.77;5.27;;;10.20;99.90;;;;;;5116494;28;20439;-71
2023/02/03 12:56:57;;;;;;;19.00;5.07;;;10.20;99.90;;;;;;5116438;28;20799;-73
2023/02/03 12:59:30;;;;;;;16.13;5.43;;;10.10;99.90;;;;;;5116170;28;21017;-72
2023/02/03 13:02:01;;;;;;;20.83;5.60;;;10.20;99.90;;;;;;5098084;28;20435;-73
2023/02/03 13:04:36;;;;;;;14.10;4.90;;;10.10;99.90;;;;;;5097904;28;20538;-73
2023/02/03 13:07:16;;;;;;;16.90;5.37;;;10.10;99.90;;;;;;5098189;28;20910;-72
2023/02/03 13:09:52;;;;;;;21.30;6.07;;;10.10;99.90;;;;;;5116457;28;20470;-72
2023/02/03 13:12:29;;;;;;;18.90;6.17;;;10.10;99.90;;;;;;5116482;28;20890;-73